Time;durP1;ratioP1;P1;durP2;ratioP2;P2;SDS_P1;SDS_P2;PMS_P1;PMS_P2;Temp;Humidity;BMP_temperature;BMP_pressure;BME280_temperature;BME280_humidity;BME280_pressure;Samples;Min_cycle;Max_cycle;Signal;HPM_P1;HPM_P2
2023/02/13 00:01:26;;;;;;;;;;;;;;;23.95;29.92;96838.00;4971370;28;1327;-71
2023/02/13 00:03:52;;;;;;;;;;;;;;;23.98;30.01;96834.94;4957817;28;1966;-74
2023/02/13 00:06:17;;;;;;;;;;;;;;;24.02;29.98;96834.41;4958741;28;1445;-71
2023/02/13 00:08:42;;;;;;;;;;;;;;;24.06;29.86;96836.72;4956673;28;1363;-71
2023/02/13 00:11:07;;;;;;;;;;;;;;;24.04;30.19;96844.94;4957741;28;1220;-73
2023/02/13 00:13:34;;;;;;;;;;;;;;;24.09;29.95;96845.22;4957011;28;1354;-73
2023/02/13 00:16:00;;;;;;;;;;;;;;;24.14;29.95;96842.00;4958943;28;1116;-73
2023/02/13 00:18:26;;;;;;;;;;;;;;;24.15;29.93;96843.66;4969584;28;1398;-72
2023/02/13 00:21:20;;;;;;;;;;;;;;;24.17;29.91;96847.00;4956379;28;1405;-73
2023/02/13 00:23:46;;;;;;;;;;;;;;;24.18;29.96;96849.47;4965866;28;1902;-73
2023/02/13 00:26:12;;;;;;;;;;;;;;;24.18;30.19;96846.78;4968960;28;1201;-73
2023/02/13 00:28:39;;;;;;;;;;;;;;;24.21;29.98;96842.91;4964012;28;1394;-73
2023/02/13 00:31:09;;;;;;;;;;;;;;;24.23;30.01;96849.75;4973788;28;1319;-73
2023/02/13 00:33:34;;;;;;;;;;;;;;;24.22;29.97;96844.59;4968283;28;1314;-73
2023/02/13 00:36:07;;;;;;;;;;;;;;;24.20;30.26;96850.13;4962553;28;1177;-73
2023/02/13 00:38:33;;;;;;;;;;;;;;;24.24;30.13;96853.28;4967944;28;1427;-73
2023/02/13 00:40:58;;;;;;;;;;;;;;;24.22;30.28;96849.97;4946400;28;1361;-73
2023/02/13 00:43:24;;;;;;;;;;;;;;;24.24;30.27;96848.72;4974814;28;1969;-73
2023/02/13 00:45:49;;;;;;;;;;;;;;;24.27;30.11;96846.72;4962681;28;1445;-73
2023/02/13 00:48:14;;;;;;;;;;;;;;;24.29;30.34;96850.06;4955573;28;1351;-72
2023/02/13 00:50:39;;;;;;;;;;;;;;;24.28;30.47;96854.59;4966874;28;1349;-71
2023/02/13 00:53:05;;;;;;;;;;;;;;;24.26;30.42;96861.16;4969007;28;1287;-72
2023/02/13 00:55:30;;;;;;;;;;;;;;;24.27;30.33;96862.81;4964975;28;1361;-70
2023/02/13 00:57:55;;;;;;;;;;;;;;;24.27;30.31;96858.25;4972840;28;1334;-72
2023/02/13 01:00:20;;;;;;;;;;;;;;;24.25;30.24;96863.00;4973282;28;1362;-70
2023/02/13 01:02:46;;;;;;;;;;;;;;;24.23;30.47;96867.72;4961432;28;1419;-69
2023/02/13 01:05:12;;;;;;;;;;;;;;;24.20;30.59;96868.06;4965155;28;1976;-70
2023/02/13 01:07:38;;;;;;;;;;;;;;;24.19;30.38;96866.41;4962162;28;1465;-70
2023/02/13 01:10:03;;;;;;;;;;;;;;;24.17;30.65;96861.22;4972998;28;1326;-70
2023/02/13 01:12:28;;;;;;;;;;;;;;;24.18;30.92;96862.88;4973141;28;1330;-67
2023/02/13 01:14:54;;;;;;;;;;;;;;;24.24;30.81;96854.09;4959421;28;1391;-68
2023/02/13 01:17:20;;;;;;;;;;;;;;;24.29;30.67;96853.56;4973315;28;1537;-68
2023/02/13 01:19:45;;;;;;;;;;;;;;;24.36;30.75;96859.88;4966581;28;1460;-68
2023/02/13 01:22:10;;;;;;;;;;;;;;;24.37;30.66;96860.69;4969008;28;1389;-66
2023/02/13 01:24:35;;;;;;;;;;;;;;;24.37;30.39;96866.88;4961287;28;1968;-68
2023/02/13 01:27:01;;;;;;;;;;;;;;;24.39;30.48;96867.53;4965715;28;1289;-67
2023/02/13 01:29:26;;;;;;;;;;;;;;;24.39;30.56;96867.53;4972159;28;1501;-68
2023/02/13 01:31:52;;;;;;;;;;;;;;;24.36;30.62;96861.69;4955445;28;912;-67
2023/02/13 01:34:18;;;;;;;;;;;;;;;24.37;30.73;96866.88;4965865;28;1434;-68
2023/02/13 01:36:43;;;;;;;;;;;;;;;24.34;30.76;96869.94;4964742;28;1171;-68
2023/02/13 01:39:10;;;;;;;;;;;;;;;24.36;30.52;96867.91;4974492;28;1129;-72
2023/02/13 01:41:35;;;;;;;;;;;;;;;24.33;30.40;96868.25;4974338;28;1461;-72
2023/02/13 01:44:01;;;;;;;;;;;;;;;24.31;30.63;96864.13;4967946;28;1898;-67
2023/02/13 01:46:26;;;;;;;;;;;;;;;24.33;30.73;96870.94;4972961;28;1189;-65
2023/02/13 01:48:53;;;;;;;;;;;;;;;24.40;30.65;96877.25;4963001;28;1342;-69
2023/02/13 01:51:22;;;;;;;;;;;;;;;24.42;30.61;96875.22;4970889;28;1398;-69
2023/02/13 01:53:52;;;;;;;;;;;;;;;24.39;30.85;96872.91;4965795;28;1151;-68
2023/02/13 01:56:31;;;;;;;;;;;;;;;24.41;30.67;96881.59;4963129;28;1342;-69
2023/02/13 01:58:59;;;;;;;;;;;;;;;24.46;30.64;96887.28;4951196;28;1304;-70
2023/02/13 02:01:25;;;;;;;;;;;;;;;24.45;30.48;96874.88;4956676;28;1411;-71
2023/02/13 02:03:55;;;;;;;;;;;;;;;24.42;30.57;96880.59;4969614;28;1969;-69
2023/02/13 02:06:24;;;;;;;;;;;;;;;24.42;30.57;96877.91;4959087;28;1437;-71
2023/02/13 02:08:50;;;;;;;;;;;;;;;24.42;30.62;96874.41;4973618;28;1501;-71
2023/02/13 02:11:29;;;;;;;;;;;;;;;24.41;30.91;96881.59;4960330;28;1326;-71
2023/02/13 02:13:56;;;;;;;;;;;;;;;24.30;30.79;96871.31;4952688;28;1385;-71
2023/02/13 02:16:21;;;;;;;;;;;;;;;24.27;30.94;96869.00;4960720;28;1385;-70
2023/02/13 02:18:47;;;;;;;;;;;;;;;24.30;30.89;96879.34;4970809;28;1414;-70
2023/02/13 02:21:21;;;;;;;;;;;;;;;24.29;30.74;96872.34;4952214;28;1485;-70
2023/02/13 02:23:52;;;;;;;;;;;;;;;24.29;30.70;96866.97;4958577;28;1902;-70
2023/02/13 02:26:23;;;;;;;;;;;;;;;24.40;31.31;96871.88;4961575;28;1362;-71
2023/02/13 02:29:07;;;;;;;;;;;;;;;24.59;31.02;96872.38;4961468;28;1360;-71
2023/02/13 02:31:51;;;;;;;;;;;;;;;24.67;31.00;96870.41;4965092;28;1481;-70
2023/02/13 02:34:32;;;;;;;;;;;;;;;24.70;30.53;96874.56;4959251;28;1401;-71
2023/02/13 02:37:04;;;;;;;;;;;;;;;24.75;30.73;96882.09;4966521;28;1331;-71
2023/02/13 02:39:33;;;;;;;;;;;;;;;24.73;30.56;96879.56;4958408;28;1401;-70
2023/02/13 02:42:00;;;;;;;;;;;;;;;24.73;30.65;96884.94;4973719;28;1418;-72
2023/02/13 02:44:38;;;;;;;;;;;;;;;24.50;30.60;96884.22;4958648;28;1969;-69
2023/02/13 02:50:00;;;;;;;;;;;;;;;24.30;30.90;96898.13;4954365;28;1372;-67
2023/02/13 02:52:34;;;;;;;;;;;;;;;24.25;30.73;96900.56;4962098;28;1455;-68
2023/02/13 02:55:09;;;;;;;;;;;;;;;24.20;31.09;96902.94;4979400;28;1466;-68
2023/02/13 03:06:12;;;;;;;;;;;;;;;24.11;31.38;96901.38;4966435;28;1199;-69
2023/02/13 03:14:08;;;;;;;;;;;;;;;24.10;31.44;96897.81;4958972;28;1233;-69
2023/02/13 03:22:25;;;;;;;;;;;;;;;24.11;31.56;96901.38;4962521;28;1391;-69
2023/02/13 03:25:09;;;;;;;;;;;;;;;24.11;31.77;96906.72;4976400;28;1918;-69
2023/02/13 03:30:35;;;;;;;;;;;;;;;24.08;31.78;96907.06;4947500;28;1173;-69
2023/02/13 03:33:13;;;;;;;;;;;;;;;24.08;31.83;96907.06;4957582;28;1337;-68
2023/02/13 03:38:52;;;;;;;;;;;;;;;24.09;31.77;96916.78;4957977;28;1193;-69
2023/02/13 03:41:21;;;;;;;;;;;;;;;24.09;31.80;96906.91;4966817;28;1235;-70
2023/02/13 03:43:49;;;;;;;;;;;;;;;24.07;32.03;96914.28;4975046;28;1903;-75
2023/02/13 03:46:15;;;;;;;;;;;;;;;24.08;32.00;96901.69;4975791;28;1473;-69
2023/02/13 03:51:28;;;;;;;;;;;;;;;24.11;32.02;96910.25;4973616;28;1385;-69
2023/02/13 03:53:56;;;;;;;;;;;;;;;24.11;32.05;96912.09;4951024;28;1271;-69
2023/02/13 03:59:15;;;;;;;;;;;;;;;24.10;32.16;96905.88;4971699;28;1331;-69
2023/02/13 04:01:43;;;;;;;;;;;;;;;24.09;32.25;96903.38;4962035;28;1342;-69
2023/02/13 04:04:08;;;;;;;;;;;;;;;24.09;32.40;96898.84;4961201;28;1969;-68
2023/02/13 04:06:48;;;;;;;;;;;;;;;24.07;32.00;96905.41;4973016;28;1553;-69
2023/02/13 04:09:14;;;;;;;;;;;;;;;24.12;31.88;96903.84;4974447;28;1439;-69
2023/02/13 04:11:46;;;;;;;;;;;;;;;24.10;31.97;96899.69;4973843;28;1405;-70
2023/02/13 04:14:18;;;;;;;;;;;;;;;21.97;24.14;96904.16;4975604;28;1236;-67
2023/02/13 04:16:46;;;;;;;;;;;;;;;18.31;27.55;96918.22;4956066;28;1303;-68
2023/02/13 04:19:12;;;;;;;;;;;;;;;17.23;28.77;96905.16;4963082;28;1356;-67
2023/02/13 04:21:39;;;;;;;;;;;;;;;16.99;28.49;96910.81;4973264;28;1291;-67
2023/02/13 04:24:04;;;;;;;;;;;;;;;16.68;28.42;96908.22;4956445;28;1968;-67
2023/02/13 04:26:37;;;;;;;;;;;;;;;16.48;28.06;96915.25;4967224;28;1473;-67
2023/02/13 04:29:02;;;;;;;;;;;;;;;16.02;28.09;96926.28;4969432;28;1318;-67
2023/02/13 04:31:28;;;;;;;;;;;;;;;15.90;28.07;96922.88;4967014;28;1350;-66
2023/02/13 04:33:53;;;;;;;;;;;;;;;15.87;28.40;96913.38;4974021;28;1263;-66
2023/02/13 04:36:18;;;;;;;;;;;;;;;15.61;28.10;96914.69;4975023;28;1334;-66
2023/02/13 04:38:44;;;;;;;;;;;;;;;15.47;28.48;96911.38;4955220;28;1398;-66
2023/02/13 04:41:10;;;;;;;;;;;;;;;15.64;27.98;96909.16;4967122;28;1315;-66
2023/02/13 04:43:36;;;;;;;;;;;;;;;15.32;27.59;96912.66;4962875;28;1958;-66
2023/02/13 04:46:01;;;;;;;;;;;;;;;15.33;27.72;96908.19;4973933;28;1291;-66
2023/02/13 04:48:27;;;;;;;;;;;;;;;15.09;28.10;96911.88;4966562;28;1477;-65
2023/02/13 04:50:52;;;;;;;;;;;;;;;15.53;29.29;96913.50;4957416;28;1354;-66
2023/02/13 04:53:17;;;;;;;;;;;;;;;16.86;26.94;96911.06;4969430;28;1390;-66
2023/02/13 04:55:42;;;;;;;;;;;;;;;17.38;27.63;96909.06;4955642;28;877;-65
2023/02/13 04:58:08;;;;;;;;;;;;;;;18.35;27.70;96922.22;4969805;28;1366;-66
2023/02/13 05:00:33;;;;;;;;;;;;;;;19.10;27.82;96919.56;4954077;28;1247;-66
2023/02/13 05:03:09;;;;;;;;;;;;;;;19.68;27.62;96918.34;4950675;28;1099;-65
2023/02/13 05:05:34;;;;;;;;;;;;;;;20.09;27.53;96918.63;4898883;28;11533;-66
2023/02/13 05:08:00;;;;;;;;;;;;;;;20.40;27.38;96917.19;4988115;28;1311;-65
2023/02/13 05:10:25;;;;;;;;;;;;;;;20.65;27.38;96928.00;4965230;28;1185;-65
2023/02/13 05:12:51;;;;;;;;;;;;;;;20.18;25.87;96931.06;4945590;29;1008;-66
2023/02/13 05:15:16;;;;;;;;;;;;;;;19.86;26.96;96932.44;4961224;28;1279;-66
2023/02/13 05:17:45;;;;;;;;;;;;;;;19.95;28.32;96928.88;4964049;28;1383;-67
2023/02/13 05:20:12;;;;;;;;;;;;;;;20.32;28.13;96934.94;4971375;28;1489;-65
2023/02/13 05:25:25;;;;;;;;;;;;;;;20.78;28.05;96936.44;4969467;28;1963;-67
2023/02/13 05:27:51;;;;;;;;;;;;;;;20.91;27.96;96945.81;4974520;28;806;-66
2023/02/13 05:30:16;;;;;;;;;;;;;;;21.03;27.80;96947.19;4972199;28;917;-66
2023/02/13 05:32:42;;;;;;;;;;;;;;;21.13;27.87;96944.41;4969922;28;1273;-66
2023/02/13 05:35:07;;;;;;;;;;;;;;;21.19;27.87;96939.25;4944090;28;1185;-66
2023/02/13 05:37:32;;;;;;;;;;;;;;;21.26;27.84;96940.28;4954878;28;1133;-66
2023/02/13 05:39:57;;;;;;;;;;;;;;;21.31;27.74;96948.59;4954990;28;914;-66
2023/02/13 05:42:23;;;;;;;;;;;;;;;21.36;27.95;96949.97;4955061;28;818;-66
2023/02/13 05:44:48;;;;;;;;;;;;;;;21.40;28.01;96951.34;4969772;28;1902;-66
2023/02/13 05:47:13;;;;;;;;;;;;;;;21.45;27.77;96957.03;4945164;28;1066;-66
2023/02/13 05:49:39;;;;;;;;;;;;;;;21.49;27.80;96953.88;4969549;28;1387;-66
2023/02/13 05:52:04;;;;;;;;;;;;;;;21.53;27.80;96957.03;4969718;28;1354;-64
2023/02/13 05:54:29;;;;;;;;;;;;;;;21.58;27.85;96949.38;4955109;28;822;-65
2023/02/13 05:56:55;;;;;;;;;;;;;;;21.59;27.81;96956.38;4952620;28;787;-65
2023/02/13 05:59:20;;;;;;;;;;;;;;;21.64;27.85;96959.41;4947329;28;1115;-65
2023/02/13 06:01:45;;;;;;;;;;;;;;;21.67;27.89;96950.22;4953467;28;1525;-65
2023/02/13 06:04:10;;;;;;;;;;;;;;;21.70;27.83;96952.56;4954635;28;1965;-65
2023/02/13 06:06:36;;;;;;;;;;;;;;;21.73;27.87;96958.41;4954711;28;1487;-65
2023/02/13 06:09:01;;;;;;;;;;;;;;;21.74;27.85;96964.59;4945821;28;999;-65
2023/02/13 06:11:26;;;;;;;;;;;;;;;21.77;27.88;96967.78;4952708;28;1181;-65
2023/02/13 06:13:51;;;;;;;;;;;;;;;21.81;27.68;96965.59;4954664;28;870;-65
2023/02/13 06:16:17;;;;;;;;;;;;;;;21.84;27.86;96965.28;4954579;28;886;-65
2023/02/13 06:18:42;;;;;;;;;;;;;;;21.86;27.74;96968.63;4954838;28;903;-65
2023/02/13 06:21:08;;;;;;;;;;;;;;;21.87;27.80;96972.13;4944753;28;1061;-66
2023/02/13 06:23:33;;;;;;;;;;;;;;;21.87;27.73;96969.47;4954628;28;1911;-65
2023/02/13 06:26:03;;;;;;;;;;;;;;;21.91;27.67;96976.13;4954762;28;794;-66
2023/02/13 06:28:29;;;;;;;;;;;;;;;21.93;27.71;96971.47;4953200;28;1279;-65
2023/02/13 06:30:54;;;;;;;;;;;;;;;21.95;27.76;96977.47;4955229;28;925;-65
2023/02/13 06:33:19;;;;;;;;;;;;;;;21.97;27.87;96983.47;4947253;28;1158;-66
2023/02/13 06:35:44;;;;;;;;;;;;;;;21.98;27.81;96982.50;4958251;28;964;-65
2023/02/13 06:38:10;;;;;;;;;;;;;;;21.97;27.86;96976.31;4958458;28;905;-64
2023/02/13 06:40:35;;;;;;;;;;;;;;;21.99;27.73;96978.81;4958164;28;870;-65
2023/02/13 06:43:00;;;;;;;;;;;;;;;22.02;27.86;96979.31;4951782;28;1087;-65
2023/02/13 06:45:26;;;;;;;;;;;;;;;22.04;27.88;96981.81;4953758;28;1907;-65
2023/02/13 06:47:51;;;;;;;;;;;;;;;22.04;27.79;96981.81;4958123;28;882;-65
2023/02/13 06:50:16;;;;;;;;;;;;;;;22.07;27.87;96986.84;4972754;28;1421;-65
2023/02/13 06:52:49;;;;;;;;;;;;;;;22.08;27.92;96983.16;4957985;28;798;-65
2023/02/13 06:55:15;;;;;;;;;;;;;;;22.08;27.87;96987.66;4948024;28;1139;-65
2023/02/13 06:57:41;;;;;;;;;;;;;;;22.09;27.87;96979.50;4957840;28;905;-64
2023/02/13 07:00:06;;;;;;;;;;;;;;;22.11;27.84;96982.81;4972620;28;1143;-64
2023/02/13 07:02:32;;;;;;;;;;;;;;;22.12;27.83;96987.19;4972556;28;1422;-64
2023/02/13 07:04:57;;;;;;;;;;;;;;;22.14;27.77;96979.81;4957640;28;1910;-65
2023/02/13 07:07:23;;;;;;;;;;;;;;;22.14;27.80;96976.28;4947510;28;1309;-64
2023/02/13 07:09:48;;;;;;;;;;;;;;;22.15;27.81;96983.34;4957639;28;807;-64
2023/02/13 07:12:13;;;;;;;;;;;;;;;22.16;27.82;96975.13;4957583;28;893;-65
2023/02/13 07:14:39;;;;;;;;;;;;;;;22.17;27.68;96974.19;4956282;28;1596;-65
2023/02/13 07:17:04;;;;;;;;;;;;;;;22.18;27.76;96986.53;4951065;28;969;-72
2023/02/13 07:19:30;;;;;;;;;;;;;;;22.20;27.63;96978.34;4954132;28;1133;-65
2023/02/13 07:21:55;;;;;;;;;;;;;;;22.21;27.78;96982.69;4957614;28;802;-65
2023/02/13 07:24:21;;;;;;;;;;;;;;;22.26;27.80;96982.19;4972111;28;1970;-65
2023/02/13 07:26:46;;;;;;;;;;;;;;;22.27;27.78;96986.53;4957341;28;814;-65
2023/02/13 07:29:11;;;;;;;;;;;;;;;22.29;27.59;96984.53;4947480;28;1019;-64
2023/02/13 07:31:38;;;;;;;;;;;;;;;22.28;27.81;96989.03;4957331;28;794;-65
2023/02/13 07:34:03;;;;;;;;;;;;;;;22.30;27.71;96992.38;4957523;28;830;-65
2023/02/13 07:36:28;;;;;;;;;;;;;;;22.30;27.75;96997.72;4955945;28;1181;-65
2023/02/13 07:38:53;;;;;;;;;;;;;;;22.32;27.59;96997.56;4957221;28;905;-65
2023/02/13 07:41:19;;;;;;;;;;;;;;;22.33;27.83;96994.72;4946841;28;1105;-65
2023/02/13 07:43:44;;;;;;;;;;;;;;;22.34;27.71;96992.88;4956879;28;1894;-67
2023/02/13 07:46:09;;;;;;;;;;;;;;;22.36;27.71;96991.69;4957087;28;785;-65
2023/02/13 07:48:34;;;;;;;;;;;;;;;22.37;27.73;96997.88;4956954;28;878;-65
2023/02/13 07:51:01;;;;;;;;;;;;;;;22.37;27.64;96990.72;4952154;28;1166;-65
2023/02/13 07:53:26;;;;;;;;;;;;;;;22.39;27.68;96987.84;4952166;28;1136;-65
2023/02/13 07:55:51;;;;;;;;;;;;;;;22.40;27.64;96990.38;4956887;28;882;-65
2023/02/13 07:58:17;;;;;;;;;;;;;;;22.39;27.76;96986.00;4956792;28;917;-65
2023/02/13 08:00:42;;;;;;;;;;;;;;;22.41;27.52;96989.34;4955764;28;1182;-65
2023/02/13 08:03:08;;;;;;;;;;;;;;;22.41;27.46;96986.69;4946897;28;1004;-65
2023/02/13 08:05:34;;;;;;;;;;;;;;;22.44;27.50;96994.38;4956704;28;1898;-65
2023/02/13 08:07:59;;;;;;;;;;;;;;;22.44;27.58;96989.00;4956492;28;1218;-65
2023/02/13 08:13:09;;;;;;;;;;;;;;;22.46;27.69;96988.84;4956910;29;640;-65
2023/02/13 08:15:34;;;;;;;;;;;;;;;22.47;27.69;96982.50;4947035;28;1095;-65
2023/02/13 08:17:59;;;;;;;;;;;;;;;22.48;27.65;96984.16;4956549;28;912;-65
2023/02/13 08:20:25;;;;;;;;;;;;;;;22.48;27.61;96984.16;4956721;28;872;-65
2023/02/13 08:22:50;;;;;;;;;;;;;;;22.49;27.57;96991.19;4956578;28;870;-65
2023/02/13 08:25:15;;;;;;;;;;;;;;;22.50;27.53;96984.81;4949235;28;1972;-65
2023/02/13 08:27:41;;;;;;;;;;;;;;;22.51;27.46;96988.34;4953841;28;989;-65
2023/02/13 08:30:06;;;;;;;;;;;;;;;22.51;27.39;96989.16;4956244;28;953;-65
2023/02/13 08:32:32;;;;;;;;;;;;;;;22.52;27.68;96985.50;4956217;28;930;-65
2023/02/13 08:34:57;;;;;;;;;;;;;;;22.52;27.35;96982.81;4954869;28;1173;-65
2023/02/13 08:37:22;;;;;;;;;;;;;;;22.52;27.39;96985.50;4946413;28;1043;-65
2023/02/13 08:39:48;;;;;;;;;;;;;;;22.52;27.49;96985.50;4956369;28;794;-65
2023/02/13 08:42:13;;;;;;;;;;;;;;;22.52;27.41;96982.81;4956275;28;814;-65
2023/02/13 08:44:40;;;;;;;;;;;;;;;22.53;27.39;96987.16;4955880;28;1952;-65
2023/02/13 08:47:05;;;;;;;;;;;;;;;22.54;27.36;96983.50;4970766;28;1211;-65
2023/02/13 08:49:31;;;;;;;;;;;;;;;22.54;27.56;96986.19;4944989;28;1317;-65
2023/02/13 08:51:56;;;;;;;;;;;;;;;22.55;27.39;96978.97;4956101;28;874;-65
2023/02/13 08:54:22;;;;;;;;;;;;;;;22.55;27.42;96990.50;4954995;28;909;-65
2023/02/13 08:56:47;;;;;;;;;;;;;;;22.56;27.59;96992.16;4954478;28;1364;-65
2023/02/13 08:59:12;;;;;;;;;;;;;;;;;;4965487;28;1069;-65
2023/02/13 09:01:37;;;;;;;;;;;;;;;22.57;27.48;96987.66;4950796;28;1187;-65
2023/02/13 09:04:03;;;;;;;;;;;;;;;22.57;27.44;96984.97;4955520;28;1972;-65
2023/02/13 09:06:28;;;;;;;;;;;;;;;22.58;27.49;96984.81;4969989;28;1329;-67
2023/02/13 09:08:53;;;;;;;;;;;;;;;22.59;27.31;96986.47;4955605;28;869;-65
2023/02/13 09:11:22;;;;;;;;;;;;;;;22.59;27.43;96986.47;4945487;28;1199;-65
2023/02/13 09:13:47;;;;;;;;;;;;;;;22.60;27.47;96985.50;4955476;28;877;-65
2023/02/13 09:16:12;;;;;;;;;;;;;;;22.60;27.29;96992.69;4955428;28;862;-64
2023/02/13 09:18:38;;;;;;;;;;;;;;;22.59;27.47;96986.47;4955423;28;912;-64
2023/02/13 09:21:05;;;;;;;;;;;;;;;22.61;27.47;96983.66;4955334;28;951;-65
2023/02/13 09:23:34;;;;;;;;;;;;;;;22.61;27.32;96976.44;4945461;28;1914;-65
2023/02/13 09:26:00;;;;;;;;;;;;;;;22.60;27.46;96977.47;4955541;28;873;-65
2023/02/13 09:28:26;;;;;;;;;;;;;;;22.61;27.27;96979.13;4955270;28;926;-65
2023/02/13 09:30:51;;;;;;;;;;;;;;;22.61;27.22;96973.78;4954062;28;1165;-65
2023/02/13 09:33:16;;;;;;;;;;;;;;;22.61;27.42;96968.44;4964958;28;1197;-65
2023/02/13 09:35:44;;;;;;;;;;;;;;;22.62;27.51;96967.41;4950183;29;1082;-65
2023/02/13 09:38:10;;;;;;;;;;;;;;;22.62;27.37;96967.41;4955110;28;893;-65
2023/02/13 09:40:39;;;;;;;;;;;;;;;22.63;27.38;96961.06;4955040;28;877;-65
2023/02/13 09:43:24;;;;;;;;;;;;;;;22.64;27.22;96969.94;4953712;28;1308;-65
2023/02/13 09:45:51;;;;;;;;;;;;;;;22.64;27.39;96957.38;4939884;28;1260;-65
2023/02/13 09:48:30;;;;;;;;;;;;;;;22.65;27.45;96953.72;4969669;28;1451;-65
2023/02/13 09:50:57;;;;;;;;;;;;;;;22.65;27.21;96952.84;4955195;28;882;-65
2023/02/13 09:53:23;;;;;;;;;;;;;;;22.63;27.21;96942.34;4954886;28;976;-65
2023/02/13 09:55:54;;;;;;;;;;;;;;;22.66;27.20;96939.31;4964835;28;1269;-65
2023/02/13 09:58:36;;;;;;;;;;;;;;;22.67;27.35;96951.69;4949882;28;1090;-66
2023/02/13 10:01:03;;;;;;;;;;;;;;;22.66;27.31;96939.31;4954915;28;869;-65
2023/02/13 10:03:38;;;;;;;;;;;;;;;22.68;27.34;96947.16;4954712;28;1969;-65
2023/02/13 10:06:09;;;;;;;;;;;;;;;22.68;27.18;96945.34;4954580;28;1309;-65
2023/02/13 10:08:54;;;;;;;;;;;;;;;22.70;27.23;96936.31;4944705;28;1335;-65
2023/02/13 10:11:36;;;;;;;;;;;;;;;22.70;27.29;96934.44;4969470;28;1171;-65
2023/02/13 10:14:13;;;;;;;;;;;;;;;22.70;27.14;96929.09;4954747;28;878;-65
2023/02/13 10:16:57;;;;;;;;;;;;;;;22.71;27.16;96925.41;4953361;28;1214;-65
2023/02/13 10:19:38;;;;;;;;;;;;;;;22.69;27.35;96922.09;4944669;28;1033;-65
2023/02/13 10:22:09;;;;;;;;;;;;;;;22.71;27.28;96921.91;4953307;28;1209;-65
2023/02/13 10:24:37;;;;;;;;;;;;;;;22.70;27.17;96913.06;4954525;28;1973;-65
2023/02/13 10:27:18;;;;;;;;;;;;;;;22.73;27.17;96906.53;4953330;28;1379;-65
2023/02/13 10:30:05;;;;;;;;;;;;;;;22.73;27.12;96909.19;4948591;28;1184;-66
2023/02/13 10:32:30;;;;;;;;;;;;;;;22.72;27.15;96903.00;4949630;28;1142;-65
2023/02/13 10:34:58;;;;;;;;;;;;;;;22.74;27.24;96898.34;4954624;28;865;-65
2023/02/13 10:37:23;;;;;;;;;;;;;;;22.75;27.40;96896.50;4954481;28;779;-65
2023/02/13 10:39:50;;;;;;;;;;;;;;;22.75;27.34;96888.47;4954707;28;885;-69
2023/02/13 10:42:34;;;;;;;;;;;;;;;22.77;27.13;96878.41;4944546;28;1050;-65
2023/02/13 10:45:02;;;;;;;;;;;;;;;22.77;27.27;96881.94;4954358;28;1965;-66
2023/02/13 10:47:45;;;;;;;;;;;;;;;22.76;27.26;96871.38;4954373;28;814;-65
2023/02/13 10:50:40;;;;;;;;;;;;;;;22.77;27.20;96867.69;4954406;28;810;-65
2023/02/13 10:53:05;;;;;;;;;;;;;;;22.77;27.08;96871.22;4926049;28;1203;-69
2023/02/13 10:55:30;;;;;;;;;;;;;;;22.78;27.24;96861.34;4954085;28;1145;-65
2023/02/13 10:58:04;;;;;;;;;;;;;;;22.79;27.11;96868.34;4954380;28;929;-65
2023/02/13 11:00:36;;;;;;;;;;;;;;;22.79;27.06;96861.16;4954674;28;934;-65
2023/02/13 11:03:01;;;;;;;;;;;;;;;22.78;27.23;96861.34;4954269;28;814;-65
2023/02/13 11:05:31;;;;;;;;;;;;;;;22.80;27.15;96846.78;4944266;28;1960;-65
2023/02/13 11:07:56;;;;;;;;;;;;;;;22.79;27.21;96846.94;4954212;28;1318;-65
2023/02/13 11:10:23;;;;;;;;;;;;;;;22.80;27.22;96848.63;4954163;28;940;-65
2023/02/13 11:12:49;;;;;;;;;;;;;;;22.79;27.13;96845.09;4954102;28;1015;-65
2023/02/13 11:15:20;;;;;;;;;;;;;;;22.80;27.17;96844.13;4949734;28;1174;-65
2023/02/13 11:17:45;;;;;;;;;;;;;;;22.82;27.28;96836.72;4950942;28;1150;-65
2023/02/13 11:20:26;;;;;;;;;;;;;;;22.82;27.07;96827.88;4957598;28;865;-65
2023/02/13 11:22:51;;;;;;;;;;;;;;;22.82;27.20;96830.53;4957508;28;853;-65
2023/02/13 11:25:17;;;;;;;;;;;;;;;22.81;27.23;96818.19;4957504;28;1982;-65
2023/02/13 11:27:42;;;;;;;;;;;;;;;22.81;27.13;96819.00;4946378;28;1385;-65
2023/02/13 11:30:27;;;;;;;;;;;;;;;22.82;27.17;96809.13;4956188;28;1382;-65
2023/02/13 11:32:57;;;;;;;;;;;;;;;22.83;27.22;96805.47;4956091;28;1338;-65
2023/02/13 11:35:30;;;;;;;;;;;;;;;22.85;27.10;96793.59;4972050;28;1177;-65
2023/02/13 11:38:31;;;;;;;;;;;;;;;22.87;27.00;96796.91;4951316;28;1280;-65
2023/02/13 11:41:07;;;;;;;;;;;;;;;22.88;26.97;96787.00;4935700;29;1240;-65
2023/02/13 11:43:35;;;;;;;;;;;;;;;22.89;26.91;96786.84;4954246;28;1964;-65
2023/02/13 11:46:04;;;;;;;;;;;;;;;22.92;27.04;96779.50;4957132;28;877;-65
2023/02/13 11:48:29;;;;;;;;;;;;;;;22.93;26.95;96773.13;4955758;28;1262;-65
2023/02/13 11:50:55;;;;;;;;;;;;;;;22.93;27.24;96768.59;4947074;28;1143;-65
2023/02/13 11:53:22;;;;;;;;;;;;;;;22.93;27.02;96763.25;4956981;28;873;-65
2023/02/13 11:56:20;;;;;;;;;;;;;;;22.95;27.04;96753.22;4955603;28;1320;-65
2023/02/13 11:58:45;;;;;;;;;;;;;;;22.95;27.04;96750.56;4945159;28;1512;-66
2023/02/13 12:01:19;;;;;;;;;;;;;;;22.94;27.01;96748.88;4948907;28;959;-64
2023/02/13 12:04:01;;;;;;;;;;;;;;;22.96;26.92;96736.16;4956364;28;1898;-65
2023/02/13 12:06:26;;;;;;;;;;;;;;;22.95;26.88;96734.50;4956509;28;1341;-65
2023/02/13 12:08:51;;;;;;;;;;;;;;;22.96;27.06;96730.78;4956719;28;909;-65
2023/02/13 12:11:35;;;;;;;;;;;;;;;22.97;27.05;96732.47;4956928;28;818;-65
2023/02/13 12:14:01;;;;;;;;;;;;;;;22.97;26.89;96731.63;4946799;28;962;-65
2023/02/13 12:16:30;;;;;;;;;;;;;;;22.97;27.03;96729.81;4956552;29;941;-65
2023/02/13 12:18:58;;;;;;;;;;;;;;;22.98;27.06;96728.78;4956787;28;811;-65
2023/02/13 12:21:37;;;;;;;;;;;;;;;22.98;27.18;96726.09;4956480;28;870;-65
2023/02/13 12:24:05;;;;;;;;;;;;;;;22.99;27.01;96725.06;4961792;28;1902;-65
2023/02/13 12:26:36;;;;;;;;;;;;;;;23.00;27.04;96717.91;4956200;28;1355;-65
2023/02/13 12:29:07;;;;;;;;;;;;;;;22.99;27.05;96719.72;4956228;28;949;-67
2023/02/13 12:31:52;;;;;;;;;;;;;;;23.00;27.06;96710.69;4956287;28;803;-65
2023/02/13 12:34:35;;;;;;;;;;;;;;;23.00;26.90;96716.06;4954958;28;1213;-65
2023/02/13 12:37:00;;;;;;;;;;;;;;;22.99;26.83;96709.00;4950343;28;1050;-66
2023/02/13 12:39:29;;;;;;;;;;;;;;;23.01;26.94;96707.00;4956274;28;947;-66
2023/02/13 12:42:25;;;;;;;;;;;;;;;23.00;27.05;96712.56;4956133;28;1036;-66
2023/02/13 12:45:01;;;;;;;;;;;;;;;23.00;26.93;96705.34;4937405;28;1890;-66
2023/02/13 12:47:34;;;;;;;;;;;;;;;23.01;27.00;96698.97;4946357;28;1054;-66
2023/02/13 12:50:18;;;;;;;;;;;;;;;23.02;26.98;96687.25;4956337;28;912;-65
2023/02/13 12:52:53;;;;;;;;;;;;;;;23.03;27.03;96686.25;4954641;28;1373;-65
2023/02/13 12:55:44;;;;;;;;;;;;;;;23.02;26.98;96687.25;4955965;28;1016;-65
2023/02/13 12:58:21;;;;;;;;;;;;;;;23.03;27.00;96680.91;4938049;28;1149;-65
2023/02/13 13:01:05;;;;;;;;;;;;;;;23.03;26.87;96680.91;4955813;28;886;-65
2023/02/13 13:03:30;;;;;;;;;;;;;;;23.02;27.16;96683.75;4955756;28;1903;-65
2023/02/13 13:06:15;;;;;;;;;;;;;;;23.03;26.82;96683.56;4954425;28;1396;-65
2023/02/13 13:08:43;;;;;;;;;;;;;;;23.03;26.98;96678.22;4951556;28;1204;-66
2023/02/13 13:11:08;;;;;;;;;;;;;;;23.04;26.84;96679.03;4950328;28;1107;-66
2023/02/13 13:13:45;;;;;;;;;;;;;;;23.05;26.77;96673.53;4955552;28;895;-65
2023/02/13 13:16:17;;;;;;;;;;;;;;;23.05;26.92;96667.31;4954226;28;1178;-65
2023/02/13 13:18:48;;;;;;;;;;;;;;;23.05;26.81;96668.16;4955417;28;787;-65
2023/02/13 13:21:13;;;;;;;;;;;;;;;23.05;26.98;96662.81;4945541;28;1120;-65
2023/02/13 13:23:52;;;;;;;;;;;;;;;23.05;26.93;96654.78;4953986;28;1903;-65
2023/02/13 13:26:30;;;;;;;;;;;;;;;23.05;26.93;96654.78;4955824;28;905;-65
2023/02/13 13:28:57;;;;;;;;;;;;;;;23.05;26.77;96653.94;4955224;28;932;-65
2023/02/13 13:31:25;;;;;;;;;;;;;;;23.04;26.98;96646.91;4952407;28;953;-65
2023/02/13 13:33:50;;;;;;;;;;;;;;;23.06;26.63;96656.44;4948324;28;1623;-65
2023/02/13 13:36:21;;;;;;;;;;;;;;;23.06;26.91;96651.09;4955128;28;940;-65
2023/02/13 13:38:58;;;;;;;;;;;;;;;23.07;26.96;96649.22;4955500;29;847;-66
2023/02/13 13:41:23;;;;;;;;;;;;;;;23.07;26.98;96646.56;4954679;28;941;-65
2023/02/13 13:43:51;;;;;;;;;;;;;;;23.07;26.85;96646.56;4945055;28;1975;-66
2023/02/13 13:46:26;;;;;;;;;;;;;;;23.06;26.84;96644.91;4955063;28;858;-65
2023/02/13 13:48:54;;;;;;;;;;;;;;;23.07;26.99;96649.22;4955281;28;806;-66